KHFD

Hartford-Brainard Airport

Hartford, Connecticut, USA
METAR KHFD 260353Z 18008KT 10SM CLR 20/16 A2979 RMK AO2 SLP088 T02000156
Observed Flight Rules
May-26 @ 03:53 UTC (26 minutes ago) Visual Flight Rules
Wind Visibility Clouds
180° at 8 knots 10 miles
  • Clear skies
Temperatures Readings
Current 20°C / 68°F
Dewpoint 16°C / 61°F
Humidity 78%
Altimeter 29.79" Hg
Pressure 1008.8 hPa
Elevation 4
METAR KHFD 260353Z 18008KT 10SM CLR 20/16 A2979 RMK AO2 SLP088 T02000156
Observed Flight Rules
May-26 @ 03:53 UTC
(26 minutes ago)
VFR
Wind Visibility
180° at 8 knots 10 miles
Clouds
  • Clear skies
Temperature Dewpoint
20°C / 68°F 16°C / 61°F
Humidity Altimeter Pressure
78% 29.79" Hg 1008.8 hPa